Time;durP1;ratioP1;P1;durP2;ratioP2;P2;SDS_P1;SDS_P2;PMS_P1;PMS_P2;Temp;Humidity;BMP_temperature;BMP_pressure;BME280_temperature;BME280_humidity;BME280_pressure;Samples;Min_cycle;Max_cycle;Signal;HPM_P1;HPM_P2
2023/04/26 00:02:28;;;;;;;8.60;4.68;;;7.80;99.90;;;;;;5008531;28;20053;-75
2023/04/26 00:05:00;;;;;;;8.68;5.03;;;7.80;99.90;;;;;;5008019;28;20030;-75
2023/04/26 00:07:27;;;;;;;10.88;5.88;;;7.80;99.90;;;;;;5006905;28;20612;-75
2023/04/26 00:09:53;;;;;;;11.60;5.30;;;7.80;99.90;;;;;;5008277;28;20487;-73
2023/04/26 00:12:19;;;;;;;13.80;5.85;;;7.80;99.90;;;;;;5023947;28;20790;-75
2023/04/26 00:14:45;;;;;;;9.82;4.90;;;7.70;99.90;;;;;;5009060;28;20018;-74
2023/04/26 00:17:14;;;;;;;7.28;4.63;;;7.70;99.90;;;;;;5025790;28;20113;-74
2023/04/26 00:19:40;;;;;;;7.05;4.20;;;7.70;99.90;;;;;;5009269;28;20025;-74
2023/04/26 00:22:09;;;;;;;8.35;5.18;;;7.70;99.90;;;;;;5007573;28;20038;-76
2023/04/26 00:24:35;;;;;;;12.45;5.93;;;7.60;99.90;;;;;;5009142;28;20033;-76
2023/04/26 00:27:13;;;;;;;9.50;5.22;;;7.50;99.90;;;;;;5005656;28;20030;-74
2023/04/26 00:29:39;;;;;;;12.00;6.40;;;7.50;99.90;;;;;;5006011;28;20726;-75
2023/04/26 00:32:04;;;;;;;10.82;5.78;;;7.50;99.90;;;;;;5006082;28;20208;-75
2023/04/26 00:34:37;;;;;;;10.98;5.82;;;7.50;99.90;;;;;;5009272;28;20061;-75
2023/04/26 00:37:04;;;;;;;12.05;6.55;;;7.60;99.90;;;;;;5006752;28;20085;-74
2023/04/26 00:39:30;;;;;;;10.40;5.82;;;7.60;99.90;;;;;;5020623;28;20033;-74
2023/04/26 00:41:56;;;;;;;9.75;5.60;;;7.60;99.90;;;;;;5006779;28;20033;-74
2023/04/26 00:44:25;;;;;;;8.90;5.40;;;7.50;99.90;;;;;;5009548;28;20497;-74
2023/04/26 00:46:52;;;;;;;7.78;5.30;;;7.50;99.90;;;;;;5008247;28;20025;-74
2023/04/26 00:49:44;;;;;;;11.55;5.90;;;7.40;99.90;;;;;;5009701;28;20018;-73
2023/04/26 00:52:16;;;;;;;10.85;5.65;;;7.50;99.90;;;;;;5008818;28;20034;-74
2023/04/26 00:54:48;;;;;;;9.63;6.60;;;7.40;99.90;;;;;;5006039;28;20042;-74
2023/04/26 00:57:23;;;;;;;9.90;5.80;;;7.50;99.90;;;;;;5009687;28;20026;-74
2023/04/26 00:59:48;;;;;;;10.43;6.63;;;7.50;99.90;;;;;;5006988;28;20446;-74
2023/04/26 01:02:14;;;;;;;12.10;6.03;;;7.50;99.90;;;;;;5008765;28;20030;-73
2023/04/26 01:04:44;;;;;;;11.43;5.80;;;7.50;99.90;;;;;;5010221;28;20427;-73
2023/04/26 01:07:13;;;;;;;10.65;6.35;;;7.40;99.90;;;;;;5007284;28;20025;-73
2023/04/26 01:09:39;;;;;;;9.98;5.70;;;7.40;99.90;;;;;;5008098;28;20025;-74
2023/04/26 01:12:06;;;;;;;9.35;6.75;;;7.40;99.90;;;;;;5005902;28;20053;-74
2023/04/26 01:14:35;;;;;;;11.00;6.78;;;7.40;99.90;;;;;;5009628;28;20445;-74
2023/04/26 01:17:07;;;;;;;11.25;6.20;;;7.40;99.90;;;;;;5006367;28;20108;-73
2023/04/26 01:19:45;;;;;;;12.70;7.03;;;7.40;99.90;;;;;;5005802;28;20084;-74
2023/04/26 01:22:10;;;;;;;10.70;6.20;;;7.40;99.90;;;;;;5007716;28;20084;-73
2023/04/26 01:24:36;;;;;;;9.93;6.15;;;7.40;99.90;;;;;;5011831;28;20030;-74
2023/04/26 01:27:05;;;;;;;11.40;6.53;;;7.40;99.90;;;;;;5008169;28;20398;-74
2023/04/26 01:29:35;;;;;;;12.10;5.97;;;7.40;99.90;;;;;;5008406;28;20462;-74
2023/04/26 01:32:00;;;;;;;9.07;5.82;;;7.40;99.90;;;;;;5004970;28;20030;-75
2023/04/26 01:34:29;;;;;;;9.95;5.03;;;7.40;99.90;;;;;;5006146;28;20042;-75
2023/04/26 01:37:12;;;;;;;9.60;5.05;;;7.30;99.90;;;;;;5008627;28;20030;-74
2023/04/26 01:39:37;;;;;;;11.07;5.07;;;7.30;99.90;;;;;;5003932;28;20100;-74
2023/04/26 01:42:03;;;;;;;12.95;5.45;;;7.30;99.90;;;;;;5007282;28;20639;-75
2023/04/26 01:44:35;;;;;;;9.68;6.03;;;7.30;99.90;;;;;;5002730;28;20429;-74
2023/04/26 01:47:01;;;;;;;10.77;5.75;;;7.20;99.90;;;;;;5005501;28;20022;-75
2023/04/26 01:49:26;;;;;;;12.02;6.20;;;7.20;99.90;;;;;;5004424;28;20130;-75
2023/04/26 01:51:53;;;;;;;13.73;5.88;;;7.20;99.90;;;;;;5003726;28;20033;-74
2023/04/26 01:54:22;;;;;;;10.23;5.45;;;7.20;99.90;;;;;;5010910;28;20458;-74
2023/04/26 01:56:54;;;;;;;12.57;5.88;;;7.20;99.90;;;;;;5009972;28;20038;-74
2023/04/26 01:59:19;;;;;;;10.32;5.50;;;7.20;99.90;;;;;;5007099;28;20775;-74
2023/04/26 02:01:45;;;;;;;10.25;5.97;;;7.20;99.90;;;;;;5005835;28;20034;-74
2023/04/26 02:04:17;;;;;;;12.63;5.65;;;7.10;99.90;;;;;;5003492;28;20278;-74
2023/04/26 02:06:49;;;;;;;13.80;6.55;;;7.10;99.90;;;;;;5007745;28;20025;-74
2023/04/26 02:09:14;;;;;;;13.60;5.95;;;7.10;99.90;;;;;;5009659;28;20067;-74
2023/04/26 02:11:40;;;;;;;12.43;5.50;;;7.10;99.90;;;;;;5004068;28;20167;-74
2023/04/26 02:14:06;;;;;;;11.25;6.03;;;7.00;99.90;;;;;;5008058;28;20030;-74
2023/04/26 02:16:31;;;;;;;7.82;5.30;;;7.00;99.90;;;;;;5003449;28;20030;-74
2023/04/26 02:19:04;;;;;;;11.82;6.13;;;7.00;99.90;;;;;;5001940;28;20037;-75
2023/04/26 02:21:30;;;;;;;9.40;5.57;;;7.00;99.90;;;;;;5003617;28;20033;-75
2023/04/26 02:23:56;;;;;;;11.23;5.60;;;6.90;99.90;;;;;;5004918;28;20029;-75
2023/04/26 02:26:22;;;;;;;12.77;6.13;;;6.90;99.90;;;;;;5004814;28;20092;-74
2023/04/26 02:28:50;;;;;;;10.73;5.35;;;6.90;99.90;;;;;;5005521;28;21519;-75
2023/04/26 02:31:19;;;;;;;11.25;6.43;;;6.70;99.90;;;;;;5020218;28;20033;-74
2023/04/26 02:33:47;;;;;;;14.48;6.25;;;6.70;99.90;;;;;;5005746;28;20029;-74
2023/04/26 02:36:16;;;;;;;9.82;5.28;;;6.70;99.90;;;;;;5005111;28;20030;-74
2023/04/26 02:38:45;;;;;;;11.57;5.13;;;6.60;99.90;;;;;;5002373;28;20406;-74
2023/04/26 02:41:10;;;;;;;8.57;5.65;;;6.60;99.90;;;;;;5005193;28;20056;-75
2023/04/26 02:43:39;;;;;;;10.73;6.15;;;6.50;99.90;;;;;;5006179;28;20037;-74
2023/04/26 02:46:11;;;;;;;14.68;6.88;;;6.40;99.90;;;;;;5006523;28;20084;-74
2023/04/26 02:48:40;;;;;;;11.02;5.75;;;6.40;99.90;;;;;;5003408;28;20037;-75
2023/04/26 02:51:17;;;;;;;12.60;6.25;;;6.40;99.90;;;;;;5003196;28;20037;-75
2023/04/26 02:53:49;;;;;;;12.13;5.38;;;6.30;99.90;;;;;;5017646;28;20133;-75
2023/04/26 02:56:15;;;;;;;9.80;5.03;;;6.30;99.90;;;;;;5019222;28;20022;-74
2023/04/26 02:58:46;;;;;;;12.82;6.00;;;6.20;99.90;;;;;;5005841;28;20048;-75
2023/04/26 03:01:13;;;;;;;10.60;6.10;;;6.20;99.90;;;;;;5002748;28;20032;-75
2023/04/26 03:03:42;;;;;;;15.13;6.97;;;6.20;99.90;;;;;;5006950;28;20360;-74
2023/04/26 03:06:07;;;;;;;14.40;6.50;;;6.10;99.90;;;;;;5006890;28;20486;-74
2023/04/26 03:08:35;;;;;;;8.75;5.60;;;6.20;99.90;;;;;;5003426;28;20037;-75
2023/04/26 03:11:13;;;;;;;9.98;5.85;;;6.10;99.90;;;;;;5019473;28;20070;-74
2023/04/26 03:13:39;;;;;;;10.23;5.45;;;6.10;99.90;;;;;;5001437;28;20029;-74
2023/04/26 03:16:07;;;;;;;13.43;5.88;;;6.10;99.90;;;;;;5004986;28;20029;-75
2023/04/26 03:18:37;;;;;;;15.45;6.65;;;6.10;99.90;;;;;;5003057;28;20113;-75
2023/04/26 03:21:02;;;;;;;15.75;6.35;;;6.10;99.90;;;;;;4995974;28;20121;-75
2023/04/26 03:23:31;;;;;;;10.90;6.00;;;6.10;99.90;;;;;;5002345;28;20110;-74
2023/04/26 03:25:57;;;;;;;11.43;5.63;;;6.10;99.90;;;;;;5006611;28;20034;-74
2023/04/26 03:28:22;;;;;;;10.95;5.30;;;6.10;99.90;;;;;;5005106;28;20466;-75
2023/04/26 03:31:07;;;;;;;10.32;5.75;;;5.90;99.90;;;;;;5005133;28;20030;-75
2023/04/26 03:33:47;;;;;;;11.13;5.35;;;6.00;99.90;;;;;;4999542;28;20084;-74
2023/04/26 03:36:16;;;;;;;13.07;5.53;;;5.90;99.90;;;;;;5006948;28;20057;-74
2023/04/26 03:38:42;;;;;;;15.55;6.68;;;5.80;99.90;;;;;;5001504;28;20033;-75
2023/04/26 03:41:12;;;;;;;13.35;6.00;;;5.80;99.90;;;;;;5003237;28;20052;-75
2023/04/26 03:43:47;;;;;;;15.68;6.63;;;5.80;99.90;;;;;;5001181;28;20088;-74
2023/04/26 03:46:13;;;;;;;10.43;5.85;;;5.80;99.90;;;;;;5002468;28;20049;-75
2023/04/26 03:48:39;;;;;;;11.95;6.22;;;5.70;99.90;;;;;;5003659;28;20072;-75
2023/04/26 03:51:05;;;;;;;14.43;7.10;;;5.70;99.90;;;;;;5014096;28;20500;-75
2023/04/26 03:53:34;;;;;;;13.38;6.35;;;5.70;99.90;;;;;;5003905;28;20036;-74
2023/04/26 03:56:03;;;;;;;16.25;6.70;;;5.60;99.90;;;;;;5009049;28;20110;-74
2023/04/26 03:58:28;;;;;;;12.27;8.50;;;5.60;99.90;;;;;;5026286;28;20029;-75
2023/04/26 04:00:57;;;;;;;11.50;7.55;;;5.60;99.90;;;;;;5007275;28;20034;-75
2023/04/26 04:03:23;;;;;;;11.98;6.38;;;5.60;99.90;;;;;;5007413;28;20027;-76
2023/04/26 04:05:48;;;;;;;14.68;6.60;;;5.60;99.90;;;;;;5023958;28;20393;-76
2023/04/26 04:08:17;;;;;;;11.05;5.97;;;5.60;99.90;;;;;;5009149;28;20061;-76
2023/04/26 04:10:44;;;;;;;10.73;6.25;;;5.60;99.90;;;;;;5029376;28;20467;-76
2023/04/26 04:13:09;;;;;;;11.32;6.10;;;5.50;99.90;;;;;;5011205;28;20169;-76
2023/04/26 04:15:41;;;;;;;13.80;7.30;;;5.50;99.90;;;;;;5021661;28;20030;-76
2023/04/26 04:18:07;;;;;;;10.30;5.97;;;5.50;99.90;;;;;;5008104;28;20056;-76
2023/04/26 04:20:35;;;;;;;16.25;6.88;;;5.50;99.90;;;;;;5011933;28;20058;-76
2023/04/26 04:23:06;;;;;;;12.20;6.10;;;5.50;99.90;;;;;;5006597;28;20036;-76
2023/04/26 04:25:42;;;;;;;11.85;6.10;;;5.40;99.90;;;;;;5009281;28;20029;-76
2023/04/26 04:28:17;;;;;;;14.52;7.45;;;5.40;99.90;;;;;;5007812;28;20041;-76
2023/04/26 04:30:48;;;;;;;13.38;6.68;;;5.40;99.90;;;;;;5003661;28;20034;-76
2023/04/26 04:33:16;;;;;;;12.98;7.03;;;5.40;99.90;;;;;;5013696;28;20508;-76
2023/04/26 04:35:45;;;;;;;11.98;6.45;;;5.40;99.90;;;;;;5027074;28;20064;-75
2023/04/26 04:38:17;;;;;;;13.82;6.97;;;5.40;99.90;;;;;;5014618;28;20030;-75
2023/04/26 04:40:42;;;;;;;13.68;7.43;;;5.40;99.90;;;;;;5012790;28;20308;-75
2023/04/26 04:43:09;;;;;;;11.77;5.97;;;5.40;99.90;;;;;;5017597;28;20066;-75
2023/04/26 04:45:40;;;;;;;14.60;7.53;;;5.30;99.90;;;;;;5014035;28;20010;-75
2023/04/26 04:48:30;;;;;;;13.38;6.70;;;5.40;99.90;;;;;;5002241;28;20029;-75
2023/04/26 04:50:58;;;;;;;12.70;6.72;;;5.40;99.90;;;;;;5017566;23;20120;-77
2023/04/26 04:53:24;;;;;;;11.50;7.38;;;5.40;99.90;;;;;;5007801;28;20478;-76
2023/04/26 04:55:49;;;;;;;14.15;7.05;;;5.50;99.90;;;;;;5006094;28;20113;-76
2023/04/26 04:58:15;;;;;;;14.27;7.45;;;5.60;99.90;;;;;;5004454;28;20053;-77
2023/04/26 05:00:53;;;;;;;13.88;7.05;;;5.60;99.90;;;;;;5019858;28;20034;-77
2023/04/26 05:03:32;;;;;;;16.77;8.27;;;5.60;99.90;;;;;;5004132;28;20124;-77
2023/04/26 05:05:59;;;;;;;15.05;7.75;;;5.70;99.90;;;;;;5002241;28;20057;-77
2023/04/26 05:08:24;;;;;;;19.42;8.57;;;5.80;99.90;;;;;;5005048;28;20477;-77
2023/04/26 05:11:02;;;;;;;14.77;7.70;;;5.80;99.90;;;;;;5010045;28;20064;-77
2023/04/26 05:13:27;;;;;;;16.20;7.25;;;5.90;99.90;;;;;;5011150;28;20030;-77
2023/04/26 05:15:53;;;;;;;16.45;7.90;;;6.00;99.90;;;;;;5011277;28;20367;-77
2023/04/26 05:18:22;;;;;;;12.27;6.75;;;6.00;99.90;;;;;;5015791;28;20069;-79
2023/04/26 05:20:47;;;;;;;15.32;6.97;;;6.00;99.90;;;;;;5013931;28;20049;-78
2023/04/26 05:23:13;;;;;;;13.70;7.55;;;6.00;99.90;;;;;;5016384;28;20135;-78
2023/04/26 05:25:38;;;;;;;12.35;7.03;;;6.00;99.90;;;;;;5030599;28;20037;-78
2023/04/26 05:28:06;;;;;;;13.15;7.88;;;6.00;99.90;;;;;;5015848;28;20446;-78
2023/04/26 05:30:32;;;;;;;14.57;6.90;;;5.90;99.90;;;;;;5014122;28;20045;-78
2023/04/26 05:32:58;;;;;;;18.23;8.27;;;5.80;99.90;;;;;;5007384;28;20030;-78
2023/04/26 05:35:23;;;;;;;14.70;7.55;;;5.80;99.90;;;;;;5030569;28;20030;-80
2023/04/26 05:37:49;;;;;;;17.58;8.05;;;5.90;99.90;;;;;;5010487;28;20431;-78
2023/04/26 05:40:15;;;;;;;13.05;7.85;;;5.90;99.90;;;;;;5031123;28;20054;-79
2023/04/26 05:42:41;;;;;;;11.90;7.47;;;5.90;99.90;;;;;;5007144;28;20083;-79
2023/04/26 05:45:22;;;;;;;11.63;6.50;;;5.90;99.90;;;;;;5015669;28;20089;-77
2023/04/26 05:47:54;;;;;;;13.57;7.45;;;6.00;99.90;;;;;;5011010;28;20034;-77
2023/04/26 05:50:26;;;;;;;12.63;6.15;;;6.00;99.90;;;;;;5002372;28;20109;-77
2023/04/26 05:52:51;;;;;;;12.73;6.55;;;6.00;99.90;;;;;;5010087;28;20034;-76
2023/04/26 05:55:20;;;;;;;12.32;6.97;;;6.00;99.90;;;;;;5025407;28;20518;-77
2023/04/26 05:57:45;;;;;;;14.90;6.95;;;6.00;99.90;;;;;;5011981;28;20029;-76
2023/04/26 06:00:12;;;;;;;18.17;8.40;;;6.10;99.90;;;;;;5017330;28;20031;-75
2023/04/26 06:02:41;;;;;;;16.85;8.25;;;6.20;99.90;;;;;;5012653;28;20033;-75
2023/04/26 06:05:07;;;;;;;18.58;7.03;;;6.20;99.90;;;;;;5009424;28;20480;-76
2023/04/26 06:07:33;;;;;;;17.65;7.90;;;6.30;99.90;;;;;;5007602;28;20025;-75
2023/04/26 06:10:01;;;;;;;12.20;6.95;;;6.40;99.90;;;;;;5004431;28;20034;-77
2023/04/26 06:12:27;;;;;;;11.35;6.72;;;6.50;99.90;;;;;;4999593;28;20398;-76
2023/04/26 06:14:53;;;;;;;13.23;7.05;;;6.50;99.90;;;;;;5007840;28;20053;-77
2023/04/26 06:17:18;;;;;;;16.77;7.63;;;6.70;99.90;;;;;;5011303;28;20037;-78
2023/04/26 06:19:44;;;;;;;14.48;6.97;;;6.70;99.90;;;;;;5010936;28;20029;-78
2023/04/26 06:22:16;;;;;;;17.00;7.70;;;6.80;99.90;;;;;;5004674;28;20037;-76
2023/04/26 06:24:48;;;;;;;15.25;7.28;;;6.90;99.90;;;;;;5009728;28;20065;-74
2023/04/26 06:27:19;;;;;;;14.40;7.22;;;7.00;99.90;;;;;;5015208;28;20078;-78
2023/04/26 06:29:54;;;;;;;14.60;7.28;;;7.10;99.90;;;;;;5018722;28;20022;-78
2023/04/26 06:32:20;;;;;;;10.65;7.15;;;7.10;99.90;;;;;;5011598;28;20038;-78
2023/04/26 06:34:49;;;;;;;15.13;7.25;;;7.20;99.90;;;;;;5018816;28;20041;-79
2023/04/26 06:37:17;;;;;;;14.73;6.90;;;7.30;99.90;;;;;;5015759;28;20065;-79
2023/04/26 06:39:46;;;;;;;13.50;6.97;;;7.30;99.90;;;;;;5015177;28;20025;-79
2023/04/26 06:42:11;;;;;;;15.20;7.50;;;7.40;99.90;;;;;;5012052;28;20148;-79
2023/04/26 06:44:37;;;;;;;15.48;7.72;;;7.60;99.90;;;;;;5013545;28;20100;-79
2023/04/26 06:47:03;;;;;;;14.82;7.22;;;7.60;99.90;;;;;;5011672;28;20109;-79
2023/04/26 06:49:28;;;;;;;13.75;6.40;;;7.70;99.90;;;;;;5009475;28;20030;-79
2023/04/26 06:51:54;;;;;;;12.80;6.30;;;7.80;99.90;;;;;;5021938;28;20038;-79
2023/04/26 06:54:26;;;;;;;10.63;6.47;;;7.80;99.90;;;;;;5011084;28;20097;-78
2023/04/26 06:56:51;;;;;;;11.07;6.88;;;7.80;99.90;;;;;;5008499;28;20370;-78
2023/04/26 06:59:23;;;;;;;14.88;6.90;;;7.90;99.90;;;;;;5010366;28;20108;-80
2023/04/26 07:01:52;;;;;;;15.02;7.25;;;8.00;99.90;;;;;;5007856;28;20038;-77
2023/04/26 07:04:24;;;;;;;15.98;6.93;;;8.10;99.90;;;;;;5007219;28;20129;-77
2023/04/26 07:06:56;;;;;;;15.63;6.65;;;8.00;99.90;;;;;;5007199;28;20021;-77
2023/04/26 07:09:22;;;;;;;16.55;7.47;;;8.00;99.90;;;;;;5011747;28;20076;-78
2023/04/26 07:11:48;;;;;;;13.48;6.10;;;8.10;99.90;;;;;;5007049;28;20030;-79
2023/04/26 07:14:13;;;;;;;11.50;6.30;;;8.10;99.90;;;;;;5011713;28;20036;-79
2023/04/26 07:16:39;;;;;;;12.25;6.72;;;8.20;99.90;;;;;;5010826;28;20030;-79
2023/04/26 07:19:05;;;;;;;11.77;6.07;;;8.30;99.90;;;;;;5017420;28;20021;-79
2023/04/26 07:21:41;;;;;;;15.52;7.38;;;8.40;99.90;;;;;;5013953;28;20493;-78
2023/04/26 07:24:15;;;;;;;12.68;6.95;;;8.60;99.90;;;;;;5014079;28;20030;-80
2023/04/26 07:26:47;;;;;;;16.38;7.28;;;8.70;99.90;;;;;;5014823;28;20272;-79
2023/04/26 07:29:13;;;;;;;10.70;5.97;;;8.70;99.90;;;;;;5019117;28;20057;-79
2023/04/26 07:31:38;;;;;;;12.13;5.78;;;8.70;99.90;;;;;;5013952;28;20446;-79
2023/04/26 07:34:07;;;;;;;14.70;5.97;;;8.60;99.90;;;;;;5015678;28;20036;-79
2023/04/26 07:36:32;;;;;;;13.40;5.55;;;8.70;99.90;;;;;;5020623;28;20030;-80
2023/04/26 07:38:58;;;;;;;11.75;5.57;;;8.70;99.90;;;;;;5032245;28;20037;-80
2023/04/26 07:41:24;;;;;;;14.55;6.05;;;8.70;99.90;;;;;;5021667;28;20394;-79
2023/04/26 07:43:49;;;;;;;10.23;4.72;;;8.80;99.90;;;;;;5017118;28;20085;-79
2023/04/26 07:46:24;;;;;;;11.40;5.60;;;8.90;99.90;;;;;;5027702;28;20030;-79
2023/04/26 07:48:50;;;;;;;11.88;5.65;;;9.00;99.90;;;;;;5016348;28;20166;-79
2023/04/26 07:51:22;;;;;;;14.30;6.68;;;9.00;99.90;;;;;;5014679;28;20319;-78
2023/04/26 07:53:48;;;;;;;14.00;5.90;;;9.00;99.90;;;;;;5010222;28;20033;-79
2023/04/26 07:56:19;;;;;;;13.63;5.75;;;9.00;99.90;;;;;;5015326;28;20548;-78
2023/04/26 07:58:45;;;;;;;15.00;7.15;;;9.10;99.90;;;;;;5013557;28;20028;-78
2023/04/26 08:01:11;;;;;;;11.93;6.05;;;9.20;99.90;;;;;;5015379;28;20352;-78
2023/04/26 08:03:37;;;;;;;14.63;6.03;;;9.10;99.90;;;;;;5010309;28;20053;-78
2023/04/26 08:06:02;;;;;;;13.98;6.97;;;9.20;99.90;;;;;;5013744;28;20018;-79
2023/04/26 08:08:39;;;;;;;17.60;5.82;;;9.30;99.90;;;;;;5014121;28;20022;-77
2023/04/26 08:11:07;;;;;;;12.95;6.63;;;9.30;99.90;;;;;;5026133;28;20072;-73
2023/04/26 08:13:36;;;;;;;12.00;6.60;;;9.20;99.90;;;;;;5002018;28;20438;-76
2023/04/26 08:16:01;;;;;;;10.75;6.20;;;9.30;99.90;;;;;;5006668;28;20478;-76
2023/04/26 08:18:27;;;;;;;16.65;5.90;;;9.40;99.90;;;;;;5003174;28;20084;-79
2023/04/26 08:20:59;;;;;;;12.15;6.35;;;9.50;99.90;;;;;;5006734;28;20396;-78
2023/04/26 08:23:25;;;;;;;11.65;6.00;;;9.60;99.90;;;;;;5006678;28;20928;-78
2023/04/26 08:26:02;;;;;;;9.93;5.50;;;9.50;99.90;;;;;;5007148;28;20509;-77
2023/04/26 08:28:28;;;;;;;9.13;4.90;;;9.50;99.90;;;;;;5009341;28;20030;-77
2023/04/26 08:30:57;;;;;;;11.80;5.45;;;9.50;99.90;;;;;;5007741;28;20060;-77
2023/04/26 08:33:22;;;;;;;11.52;5.07;;;9.50;99.90;;;;;;5008925;28;20029;-78
2023/04/26 08:35:48;;;;;;;14.80;5.07;;;9.50;99.90;;;;;;5012028;28;20132;-77
2023/04/26 08:38:17;;;;;;;12.07;5.45;;;9.50;99.90;;;;;;5008439;28;20025;-76
2023/04/26 08:40:46;;;;;;;11.98;4.90;;;9.60;99.90;;;;;;5010334;28;20033;-77
2023/04/26 08:43:18;;;;;;;8.85;4.25;;;9.60;99.90;;;;;;5003658;28;20038;-77
2023/04/26 08:45:45;;;;;;;9.77;4.90;;;9.60;99.90;;;;;;5020609;28;20143;-76
2023/04/26 08:48:16;;;;;;;11.95;5.30;;;9.70;99.90;;;;;;5005092;28;20022;-77
2023/04/26 08:50:55;;;;;;;11.93;4.90;;;9.70;99.90;;;;;;5006036;28;20026;-79
2023/04/26 08:53:30;;;;;;;12.77;5.47;;;9.80;99.90;;;;;;5004803;28;20409;-80
2023/04/26 08:55:56;;;;;;;9.48;4.72;;;9.90;99.90;;;;;;5008465;28;20030;-76
2023/04/26 08:58:22;;;;;;;11.52;5.32;;;9.90;99.90;;;;;;4994487;28;20018;-78
2023/04/26 09:00:54;;;;;;;13.10;4.80;;;9.90;99.90;;;;;;5005200;28;20053;-79
2023/04/26 09:03:22;;;;;;;11.43;5.10;;;9.90;99.90;;;;;;5010558;28;20474;-79
2023/04/26 09:05:52;;;;;;;9.75;4.75;;;9.90;99.90;;;;;;5024902;28;20487;-78
2023/04/26 09:08:21;;;;;;;10.52;5.75;;;10.00;99.90;;;;;;5010688;28;20731;-79
2023/04/26 09:10:46;;;;;;;13.55;5.85;;;10.00;99.90;;;;;;5013159;28;20026;-80
2023/04/26 09:13:13;;;;;;;8.82;4.97;;;10.00;99.90;;;;;;5011296;28;20029;-78
2023/04/26 09:15:39;;;;;;;10.98;4.63;;;10.00;99.90;;;;;;5011604;28;20077;-78
2023/04/26 09:18:21;;;;;;;11.35;5.50;;;10.10;99.90;;;;;;5009065;28;20061;-77
2023/04/26 09:21:16;;;;;;;8.52;4.60;;;10.10;99.90;;;;;;5007889;28;20038;-76
2023/04/26 09:24:14;;;;;;;13.82;5.15;;;10.10;99.90;;;;;;5011018;28;20037;-77
2023/04/26 09:26:41;;;;;;;9.93;5.00;;;10.20;99.90;;;;;;4997707;28;20069;-77
2023/04/26 09:29:19;;;;;;;10.25;4.65;;;10.20;99.90;;;;;;5018101;28;20052;-79
2023/04/26 09:31:47;;;;;;;12.70;5.18;;;10.20;99.90;;;;;;5019194;28;20049;-78
2023/04/26 09:34:14;;;;;;;8.75;4.45;;;10.20;99.90;;;;;;5032510;28;20044;-78
2023/04/26 09:36:54;;;;;;;9.52;5.20;;;10.30;99.90;;;;;;5040628;28;20053;-79
2023/04/26 09:39:41;;;;;;;8.52;4.43;;;10.40;99.90;;;;;;5043060;28;20028;-78
2023/04/26 09:42:09;;;;;;;9.63;3.90;;;10.60;99.90;;;;;;5017107;28;20601;-77
2023/04/26 09:44:34;;;;;;;8.05;4.32;;;10.60;99.90;;;;;;5012509;28;20029;-78
2023/04/26 09:47:05;;;;;;;12.18;5.05;;;10.60;99.90;;;;;;5014069;28;20030;-78
2023/04/26 09:49:47;;;;;;;10.73;4.85;;;10.60;99.90;;;;;;5009253;28;20083;-78
2023/04/26 09:52:17;;;;;;;10.80;4.72;;;10.60;99.90;;;;;;5010964;28;20049;-79
2023/04/26 09:54:51;;;;;;;10.40;5.35;;;10.70;99.90;;;;;;5010683;28;20076;-78
2023/04/26 09:57:22;;;;;;;10.68;4.60;;;10.80;99.90;;;;;;5005508;28;20021;-79
2023/04/26 09:59:50;;;;;;;10.65;5.15;;;10.80;99.90;;;;;;5012323;28;20054;-78
2023/04/26 10:02:18;;;;;;;12.65;5.18;;;11.00;99.90;;;;;;5005264;28;20667;-78
2023/04/26 10:04:46;;;;;;;7.97;4.45;;;11.00;99.60;;;;;;5008628;28;20471;-78
2023/04/26 10:07:12;;;;;;;7.97;4.05;;;11.00;99.30;;;;;;5023098;28;20033;-77
2023/04/26 10:09:40;;;;;;;8.95;4.15;;;11.10;99.30;;;;;;5008555;28;20026;-78
2023/04/26 10:12:07;;;;;;;5.90;3.30;;;11.30;99.40;;;;;;5008191;28;20026;-78
2023/04/26 10:14:35;;;;;;;8.68;3.95;;;11.50;99.50;;;;;;5003903;28;20036;-76
2023/04/26 10:17:03;;;;;;;9.45;4.25;;;11.60;98.40;;;;;;5013125;28;20025;-76
2023/04/26 10:19:36;;;;;;;8.30;4.07;;;11.60;97.90;;;;;;5006832;28;20029;-76
2023/04/26 10:22:08;;;;;;;6.15;3.63;;;11.70;98.10;;;;;;5007774;28;20033;-76
2023/04/26 10:24:35;;;;;;;6.47;3.13;;;11.70;97.60;;;;;;5003221;28;20021;-76
2023/04/26 10:27:03;;;;;;;6.63;3.17;;;11.80;96.90;;;;;;5006030;28;20417;-76
2023/04/26 10:29:53;;;;;;;7.82;3.72;;;11.80;96.70;;;;;;5010942;28;20021;-77
2023/04/26 10:32:22;;;;;;;10.70;3.70;;;11.70;95.60;;;;;;5004062;28;20026;-74
2023/04/26 10:35:12;;;;;;;14.93;5.78;;;11.60;95.90;;;;;;5008310;28;20088;-76
2023/04/26 10:38:02;;;;;;;8.38;4.10;;;11.60;95.60;;;;;;5000812;28;20137;-71
2023/04/26 10:40:40;;;;;;;6.47;3.15;;;11.60;95.70;;;;;;5013635;28;20157;-80
2023/04/26 10:43:27;;;;;;;7.45;3.33;;;11.50;94.80;;;;;;5007363;28;20072;-78
2023/04/26 10:45:55;;;;;;;6.80;3.35;;;11.60;95.00;;;;;;5014459;28;20102;-79
2023/04/26 10:48:29;;;;;;;5.88;3.40;;;11.50;95.10;;;;;;5012346;28;20060;-79
2023/04/26 10:51:07;;;;;;;7.80;3.60;;;11.50;95.00;;;;;;5007516;23;20042;-75
2023/04/26 10:53:48;;;;;;;8.38;3.20;;;11.50;94.40;;;;;;4983556;28;20030;-76
2023/04/26 10:56:25;;;;;;;7.38;3.30;;;11.60;94.70;;;;;;4987128;28;20027;-77
2023/04/26 10:59:11;;;;;;;7.18;2.85;;;11.70;95.20;;;;;;4979394;28;20038;-77
2023/04/26 11:01:38;;;;;;;7.10;2.90;;;11.70;93.60;;;;;;4970723;28;20134;-76
2023/04/26 11:04:07;;;;;;;4.13;2.28;;;11.80;93.40;;;;;;4979207;28;20038;-76
2023/04/26 11:06:56;;;;;;;4.50;2.20;;;11.70;92.40;;;;;;4966526;28;20018;-76
2023/04/26 11:09:39;;;;;;;8.18;2.72;;;11.70;92.70;;;;;;4968175;28;20469;-76
2023/04/26 11:12:12;;;;;;;8.35;2.63;;;11.70;93.10;;;;;;4958144;28;20022;-75
2023/04/26 11:14:40;;;;;;;5.35;2.58;;;11.80;92.90;;;;;;4960893;28;20297;-77
2023/04/26 11:17:07;;;;;;;3.97;2.35;;;11.80;92.80;;;;;;4942038;28;20038;-76
2023/04/26 11:19:33;;;;;;;6.10;2.47;;;11.90;92.40;;;;;;4953476;28;20412;-76
2023/04/26 11:21:59;;;;;;;8.65;2.30;;;12.00;92.10;;;;;;4956783;28;20126;-75
2023/04/26 11:24:32;;;;;;;4.65;2.22;;;12.10;92.80;;;;;;4949697;28;21634;-77
2023/04/26 11:26:58;;;;;;;7.88;3.05;;;12.20;92.10;;;;;;4978489;28;20037;-77
2023/04/26 11:29:24;;;;;;;6.00;2.17;;;12.20;91.50;;;;;;4963693;28;20030;-78
2023/04/26 11:31:55;;;;;;;3.83;2.22;;;12.30;90.80;;;;;;4973275;28;20122;-78
2023/04/26 11:34:42;;;;;;;6.55;3.20;;;12.50;90.70;;;;;;4985168;28;20058;-78
2023/04/26 11:37:08;;;;;;;7.43;2.30;;;12.50;90.70;;;;;;4967887;28;20101;-78
2023/04/26 11:39:35;;;;;;;7.70;2.65;;;12.50;88.20;;;;;;4960610;28;20027;-78
2023/04/26 11:42:06;;;;;;;4.97;1.83;;;12.50;89.30;;;;;;4971661;28;20095;-78
2023/04/26 11:44:36;;;;;;;5.88;2.70;;;12.50;88.50;;;;;;4965480;28;20395;-78
2023/04/26 11:47:05;;;;;;;2.50;1.80;;;12.60;89.60;;;;;;4974620;28;20019;-76
2023/04/26 11:49:35;;;;;;;4.38;2.08;;;12.60;89.30;;;;;;4967519;28;20513;-77
2023/04/26 11:52:02;;;;;;;6.72;2.20;;;12.70;89.70;;;;;;4964808;28;20053;-76
2023/04/26 11:54:32;;;;;;;5.07;2.17;;;12.80;91.10;;;;;;4965700;28;20371;-73
2023/04/26 11:57:15;;;;;;;6.00;2.03;;;13.10;91.70;;;;;;4969333;28;20455;-74
2023/04/26 11:59:42;;;;;;;4.20;1.95;;;13.20;88.50;;;;;;4967600;28;20035;-77
2023/04/26 12:02:08;;;;;;;3.92;2.22;;;13.30;87.50;;;;;;4969845;28;20019;-75
2023/04/26 12:04:36;;;;;;;4.47;2.67;;;13.30;86.60;;;;;;4969120;28;20113;-75
2023/04/26 12:07:04;;;;;;;5.80;2.50;;;13.30;86.80;;;;;;4968531;28;20110;-75
2023/04/26 12:09:32;;;;;;;5.50;2.40;;;13.30;86.00;;;;;;4968570;28;20046;-76
2023/04/26 12:11:59;;;;;;;4.13;2.08;;;13.40;86.90;;;;;;4969883;28;20080;-76
2023/04/26 12:14:38;;;;;;;3.53;2.05;;;13.40;86.20;;;;;;4960900;28;20031;-75
2023/04/26 12:17:06;;;;;;;5.80;2.10;;;13.30;84.30;;;;;;4966490;28;22048;-75
2023/04/26 12:19:36;;;;;;;4.20;2.55;;;13.30;84.80;;;;;;4960639;28;20543;-75
2023/04/26 12:22:02;;;;;;;6.57;2.22;;;13.20;83.30;;;;;;4965632;28;20041;-75
2023/04/26 12:24:41;;;;;;;9.45;3.00;;;13.10;83.90;;;;;;4967012;28;20031;-75
2023/04/26 12:27:20;;;;;;;4.10;1.92;;;13.10;85.20;;;;;;4968604;28;20034;-76
2023/04/26 12:29:45;;;;;;;4.95;2.10;;;13.10;84.60;;;;;;4967102;28;20023;-76
2023/04/26 12:32:11;;;;;;;4.75;1.98;;;13.10;83.90;;;;;;4963764;28;20081;-76
2023/04/26 12:34:39;;;;;;;4.30;2.40;;;13.10;83.70;;;;;;4967873;28;20039;-75
2023/04/26 12:37:11;;;;;;;6.07;1.90;;;13.00;83.30;;;;;;4965262;28;20031;-76
2023/04/26 12:39:39;;;;;;;8.25;2.28;;;13.00;84.30;;;;;;4965578;28;20031;-75
2023/04/26 12:42:08;;;;;;;5.13;2.58;;;13.00;84.20;;;;;;4964154;28;20661;-75
2023/04/26 12:44:36;;;;;;;6.28;2.60;;;12.90;81.90;;;;;;4984088;28;20027;-75
2023/04/26 12:47:05;;;;;;;3.38;2.15;;;12.90;82.20;;;;;;4962358;28;20563;-75
2023/04/26 12:49:37;;;;;;;5.72;2.45;;;12.80;82.50;;;;;;4966845;28;20027;-75
2023/04/26 12:52:08;;;;;;;6.82;2.10;;;12.80;83.50;;;;;;4965378;28;20030;-75
2023/04/26 12:54:43;;;;;;;4.55;1.65;;;12.90;84.80;;;;;;4965192;28;20023;-75
2023/04/26 12:57:09;;;;;;;3.85;1.83;;;13.00;82.90;;;;;;4966290;28;20096;-77
2023/04/26 12:59:38;;;;;;;4.95;1.77;;;13.00;82.60;;;;;;4968705;28;20051;-76
2023/04/26 13:02:04;;;;;;;4.85;2.58;;;13.00;82.20;;;;;;4970974;28;20070;-76